createdAt,value
2023-05-23T00:01:17.293Z,100928.53
2023-05-23T00:04:20.511Z,100915.72
2023-05-23T00:07:22.574Z,100916.59
2023-05-23T00:10:24.622Z,100922.97
2023-05-23T00:13:27.289Z,100924.19
2023-05-23T00:16:29.779Z,100923.97
2023-05-23T00:19:31.891Z,100924.19
2023-05-23T00:22:34.078Z,100920.41
2023-05-23T00:25:37.605Z,100919.81
2023-05-23T00:28:40.133Z,100910.97
2023-05-23T00:31:46.903Z,100923.97
2023-05-23T00:34:49.626Z,100908.88
2023-05-23T00:37:52.249Z,100906.16
2023-05-23T00:40:54.460Z,100906.97
2023-05-23T00:43:59.978Z,100904.00
2023-05-23T00:47:02.759Z,100904.84
2023-05-23T00:50:07.335Z,100891.19
2023-05-23T00:53:09.819Z,100890.81
2023-05-23T00:56:12.627Z,100890.81
2023-05-23T00:59:15.889Z,100900.88
2023-05-23T01:02:18.368Z,100901.53
2023-05-23T01:05:25.224Z,100896.50
2023-05-23T01:08:29.802Z,100891.72
2023-05-23T01:11:47.448Z,100896.31
2023-05-23T01:15:04.658Z,100909.56
2023-05-23T01:18:18.368Z,100910.41
2023-05-23T01:21:23.159Z,100913.16
2023-05-23T01:24:37.163Z,100914.41
2023-05-23T01:28:05.652Z,100909.41
2023-05-23T01:31:11.258Z,100924.97
2023-05-23T01:34:14.799Z,100909.44
2023-05-23T01:37:19.833Z,100914.84
2023-05-23T01:40:26.172Z,100917.97
2023-05-23T01:43:28.757Z,100908.97
2023-05-23T01:46:33.920Z,100910.03
2023-05-23T01:49:39.090Z,100898.47
2023-05-23T01:52:41.465Z,100905.44
2023-05-23T01:55:45.136Z,100913.22
2023-05-23T01:58:47.631Z,100908.59
2023-05-23T02:01:49.965Z,100907.53
2023-05-23T02:04:52.123Z,100915.09
2023-05-23T02:07:54.262Z,100919.91
2023-05-23T02:10:56.394Z,100927.47
2023-05-23T02:13:58.856Z,100926.44
2023-05-23T02:17:01.273Z,100931.91
2023-05-23T02:20:04.158Z,100926.44
2023-05-23T02:23:06.813Z,100924.75
2023-05-23T02:26:08.996Z,100928.34
2023-05-23T02:29:11.742Z,100928.53
2023-05-23T02:32:14.108Z,100930.00
2023-05-23T02:35:16.786Z,100933.41
2023-05-23T02:38:20.871Z,100933.16
2023-05-23T02:41:23.224Z,100918.69
2023-05-23T02:44:25.660Z,100934.66
2023-05-23T02:47:27.863Z,100928.38
2023-05-23T02:50:29.944Z,100927.53
2023-05-23T02:53:32.092Z,100929.41
2023-05-23T02:56:34.502Z,100932.34
2023-05-23T02:59:36.604Z,100928.56
2023-05-23T03:02:38.786Z,100931.09
2023-05-23T03:05:42.182Z,100930.03
2023-05-23T03:08:44.471Z,100937.16
2023-05-23T03:11:46.775Z,100931.94
2023-05-23T03:14:49.627Z,100935.66
2023-05-23T03:17:51.764Z,100935.50
2023-05-23T03:20:54.123Z,100935.31
2023-05-23T03:23:58.785Z,100937.66
2023-05-23T03:27:02.173Z,100926.09
2023-05-23T03:30:05.446Z,100939.72
2023-05-23T03:33:07.841Z,100938.25
2023-05-23T03:36:10.105Z,100945.34
2023-05-23T03:39:12.467Z,100941.34
2023-05-23T03:42:14.688Z,100945.84
2023-05-23T03:45:18.416Z,100950.88
2023-05-23T03:48:21.048Z,100947.47
2023-05-23T03:51:24.472Z,100944.50
2023-05-23T03:54:26.692Z,100944.50
2023-05-23T03:57:28.780Z,100946.19
2023-05-23T04:00:31.715Z,100948.91
2023-05-23T04:03:35.520Z,100955.47
2023-05-23T04:06:39.643Z,100950.88
2023-05-23T04:09:41.923Z,100960.28
2023-05-23T04:12:45.931Z,100952.50
2023-05-23T04:15:52.404Z,100950.78
2023-05-23T04:18:55.505Z,100950.34
2023-05-23T04:21:57.684Z,100956.03
2023-05-23T04:24:59.930Z,100957.91
2023-05-23T04:28:06.649Z,100957.66
2023-05-23T04:31:08.874Z,100962.50
2023-05-23T04:34:12.394Z,100960.00
2023-05-23T04:37:15.307Z,100959.19
2023-05-23T04:40:17.705Z,100958.16
2023-05-23T04:43:43.835Z,100955.22
2023-05-23T04:46:53.655Z,100960.63
2023-05-23T04:50:00.644Z,100955.00
2023-05-23T04:53:02.800Z,100957.09
2023-05-23T04:56:05.388Z,100949.53
2023-05-23T04:59:11.657Z,100952.72
2023-05-23T05:02:14.054Z,100955.03
2023-05-23T05:05:16.337Z,100956.22
2023-05-23T05:08:20.066Z,100950.69
2023-05-23T05:11:22.365Z,100957.78
2023-05-23T05:14:26.767Z,100963.66
2023-05-23T05:17:30.238Z,100969.94
2023-05-23T05:20:44.412Z,100964.53
2023-05-23T05:23:46.816Z,100951.69
2023-05-23T05:26:51.301Z,100945.28
2023-05-23T05:29:53.920Z,100953.09
2023-05-23T05:32:58.341Z,100959.16
2023-05-23T05:36:00.708Z,100949.94
2023-05-23T05:39:02.889Z,100962.88
2023-05-23T05:42:05.633Z,100956.13
2023-05-23T05:45:08.137Z,100948.72
2023-05-23T05:48:12.199Z,100957.75
2023-05-23T05:51:14.449Z,100958.22
2023-05-23T05:54:19.381Z,100956.75
2023-05-23T05:57:21.623Z,100956.75
2023-05-23T06:00:24.171Z,100951.84
2023-05-23T06:03:28.813Z,100944.44
2023-05-23T06:06:32.420Z,100946.06
2023-05-23T06:09:34.474Z,100932.47
2023-05-23T06:12:36.901Z,100948.41
2023-05-23T06:15:39.125Z,100959.72
2023-05-23T06:18:41.598Z,100946.66
2023-05-23T06:21:44.433Z,100945.19
2023-05-23T06:24:47.274Z,100945.63
2023-05-23T06:27:50.198Z,100941.81
2023-05-23T06:30:52.359Z,100932.50
2023-05-23T06:33:54.674Z,100942.31
2023-05-23T06:36:56.728Z,100945.78
2023-05-23T06:39:58.985Z,100946.41
2023-05-23T06:43:01.267Z,100945.00
2023-05-23T06:46:46.804Z,100930.84
2023-05-23T06:49:48.813Z,100932.50
2023-05-23T06:52:50.958Z,100931.41
2023-05-23T06:55:53.132Z,100923.56
2023-05-23T06:58:56.991Z,100922.91
2023-05-23T07:01:59.179Z,100919.13
2023-05-23T07:05:02.241Z,100921.97
2023-05-23T07:08:22.040Z,100918.38
2023-05-23T07:15:03.389Z,100914.50
2023-05-23T07:18:07.140Z,100925.44
2023-05-23T07:21:10.088Z,100916.25
2023-05-23T07:24:13.792Z,100914.88
2023-05-23T07:27:16.088Z,100906.47
2023-05-23T07:30:20.464Z,100913.47
2023-05-23T07:33:23.061Z,100917.25
2023-05-23T07:36:45.881Z,100908.59
2023-05-23T07:39:48.873Z,100907.91
2023-05-23T07:42:51.158Z,100884.72
2023-05-23T07:45:53.950Z,100888.22
2023-05-23T07:48:56.989Z,100898.09
2023-05-23T07:51:59.213Z,100887.25
2023-05-23T07:55:02.030Z,100888.91
2023-05-23T07:58:04.352Z,100883.59
2023-05-23T08:01:08.198Z,100874.91
2023-05-23T08:04:30.196Z,100880.78
2023-05-23T08:07:32.388Z,100872.56
2023-05-23T08:10:40.404Z,100875.09
2023-05-23T08:13:47.758Z,100878.19
2023-05-23T08:17:22.534Z,100865.56
2023-05-23T08:20:31.261Z,100875.88
2023-05-23T08:23:34.410Z,100872.44
2023-05-23T08:26:38.016Z,100855.19
2023-05-23T08:29:43.009Z,100856.75
2023-05-23T08:32:56.227Z,100855.69
2023-05-23T08:35:59.590Z,100852.94
2023-05-23T08:39:03.570Z,100849.78
2023-05-23T08:42:10.538Z,100848.00
2023-05-23T08:45:12.998Z,100850.47
2023-05-23T08:48:21.856Z,100845.38
2023-05-23T08:51:28.006Z,100841.09
2023-05-23T08:54:34.329Z,100837.31
2023-05-23T08:57:37.078Z,100836.81
2023-05-23T09:00:56.860Z,100821.00
2023-05-23T09:04:05.078Z,100825.19
2023-05-23T09:07:26.156Z,100828.97
2023-05-23T09:10:30.064Z,100825.88
2023-05-23T09:13:34.416Z,100826.59
2023-05-23T09:16:41.861Z,100827.50
2023-05-23T09:19:48.605Z,100827.16
2023-05-23T09:23:08.989Z,100824.91
2023-05-23T09:26:16.272Z,100826.19
2023-05-23T09:29:21.801Z,100823.44
2023-05-23T09:32:24.046Z,100815.09
2023-05-23T09:35:31.350Z,100826.66
2023-05-23T09:38:41.873Z,100823.31
2023-05-23T09:41:44.763Z,100826.66
2023-05-23T09:44:50.627Z,100824.75
2023-05-23T09:47:53.934Z,100832.97
2023-05-23T09:50:56.135Z,100829.63
2023-05-23T09:53:58.486Z,100823.53
2023-05-23T09:57:02.853Z,100828.56
2023-05-23T10:00:07.689Z,100829.63
2023-05-23T10:03:17.571Z,100825.22
2023-05-23T10:06:29.871Z,100822.25
2023-05-23T10:09:36.658Z,100828.78
2023-05-23T10:12:50.232Z,100821.44
2023-05-23T10:16:12.899Z,100811.31
2023-05-23T10:19:49.679Z,100812.25
2023-05-23T10:22:52.650Z,100804.28
2023-05-23T10:25:56.598Z,100798.56
2023-05-23T10:29:00.881Z,100803.13
2023-05-23T10:32:05.831Z,100801.59
2023-05-23T10:35:47.008Z,100800.28
2023-05-23T10:39:04.587Z,100802.19
2023-05-23T10:42:19.719Z,100796.25
2023-05-23T10:45:23.206Z,100796.38
2023-05-23T10:48:36.457Z,100787.22
2023-05-23T10:51:41.434Z,100794.84
2023-05-23T10:54:53.080Z,100788.91
2023-05-23T10:58:21.834Z,100786.53
2023-05-23T11:01:24.573Z,100786.88
2023-05-23T11:04:28.397Z,100787.16
2023-05-23T11:07:32.540Z,100775.25
2023-05-23T11:11:01.947Z,100778.47
2023-05-23T11:14:04.401Z,100774.66
2023-05-23T11:17:12.401Z,100766.88
2023-05-23T11:20:17.185Z,100762.47
2023-05-23T11:23:20.453Z,100767.09
2023-05-23T11:26:32.769Z,100775.91
2023-05-23T11:29:35.000Z,100768.53
2023-05-23T11:32:38.281Z,100763.97
2023-05-23T11:35:41.918Z,100768.69
2023-05-23T11:38:44.298Z,100766.66
2023-05-23T11:42:11.033Z,100767.94
2023-05-23T11:45:13.080Z,100758.13
2023-05-23T11:48:17.084Z,100745.50
2023-05-23T11:51:20.565Z,100755.78
2023-05-23T11:54:26.876Z,100752.78
2023-05-23T11:57:29.391Z,100753.13
2023-05-23T12:00:31.941Z,100759.34
2023-05-23T12:03:53.125Z,100740.38
2023-05-23T12:06:56.741Z,100746.19
2023-05-23T12:09:59.241Z,100746.81
2023-05-23T12:13:01.787Z,100745.41
2023-05-23T12:16:05.163Z,100744.72
2023-05-23T12:19:10.028Z,100744.13
2023-05-23T12:22:12.154Z,100735.03
2023-05-23T12:25:14.269Z,100737.75
2023-05-23T12:28:16.420Z,100746.53
2023-05-23T12:31:21.805Z,100736.91
2023-05-23T12:34:24.108Z,100735.66
2023-05-23T12:37:27.393Z,100730.25
2023-05-23T12:40:29.437Z,100723.81
2023-05-23T12:43:31.463Z,100722.41
2023-05-23T12:46:33.457Z,100718.91
2023-05-23T12:49:35.715Z,100722.75
2023-05-23T12:52:38.100Z,100721.06
2023-05-23T12:55:40.749Z,100720.72
2023-05-23T12:58:43.746Z,100715.69
2023-05-23T13:01:45.904Z,100707.63
2023-05-23T13:04:48.103Z,100707.06
2023-05-23T13:07:50.806Z,100706.13
2023-05-23T13:10:54.313Z,100702.13
2023-05-23T13:13:56.434Z,100699.53
2023-05-23T13:16:59.008Z,100702.69
2023-05-23T13:20:01.688Z,100699.63
2023-05-23T13:23:04.256Z,100697.09
2023-05-23T13:26:07.830Z,100688.78
2023-05-23T13:29:10.027Z,100692.50
2023-05-23T13:32:13.224Z,100693.81
2023-05-23T13:35:16.143Z,100678.13
2023-05-23T13:38:21.370Z,100685.38
2023-05-23T13:41:23.544Z,100681.28
2023-05-23T13:44:26.217Z,100694.84
2023-05-23T13:47:28.319Z,100685.91
2023-05-23T13:50:30.614Z,100685.03
2023-05-23T13:53:34.181Z,100686.38
2023-05-23T13:56:38.554Z,100683.88
2023-05-23T13:59:40.700Z,100697.50
2023-05-23T14:02:43.307Z,100695.00
2023-05-23T14:05:45.756Z,100692.78
2023-05-23T14:08:48.017Z,100695.84
2023-05-23T14:11:52.340Z,100696.19
2023-05-23T14:14:54.578Z,100694.69
2023-05-23T14:17:57.274Z,100694.06
2023-05-23T14:20:59.516Z,100688.06
2023-05-23T14:24:01.621Z,100692.88
2023-05-23T14:27:04.326Z,100686.69
2023-05-23T14:30:07.813Z,100692.84
2023-05-23T14:33:11.219Z,100692.50
2023-05-23T14:36:13.552Z,100686.25
2023-05-23T14:39:21.091Z,100695.16
2023-05-23T14:42:23.193Z,100691.94
2023-05-23T14:45:25.352Z,100688.72
2023-05-23T14:48:27.501Z,100689.53
2023-05-23T14:51:44.935Z,100689.03
2023-05-23T14:54:48.674Z,100689.59
2023-05-23T14:57:51.216Z,100687.72
2023-05-23T15:00:53.554Z,100686.94
2023-05-23T15:03:55.969Z,100675.72
2023-05-23T15:06:58.277Z,100679.59
2023-05-23T15:10:00.402Z,100679.94
2023-05-23T15:13:04.069Z,100676.69
2023-05-23T15:16:07.400Z,100676.13
2023-05-23T15:19:45.234Z,100670.47
2023-05-23T15:22:47.435Z,100661.91
2023-05-23T15:25:50.314Z,100663.34
2023-05-23T15:28:52.540Z,100662.47
2023-05-23T15:31:54.874Z,100668.22
2023-05-23T15:34:57.006Z,100670.81
2023-05-23T15:37:59.394Z,100671.09
2023-05-23T15:41:01.535Z,100667.13
2023-05-23T15:44:03.662Z,100665.63
2023-05-23T15:47:05.942Z,100675.34
2023-05-23T15:50:08.408Z,100669.19
2023-05-23T15:53:10.702Z,100670.06
2023-05-23T15:56:13.037Z,100673.47
2023-05-23T15:59:15.224Z,100668.56
2023-05-23T16:02:19.144Z,100668.97
2023-05-23T16:05:21.312Z,100669.94
2023-05-23T16:08:23.305Z,100677.47
2023-05-23T16:11:25.503Z,100669.91
2023-05-23T16:14:27.681Z,100674.19
2023-05-23T16:17:30.069Z,100675.16
2023-05-23T16:20:32.820Z,100674.81
2023-05-23T16:23:35.582Z,100678.25
2023-05-23T16:26:39.456Z,100681.50
2023-05-23T16:29:41.588Z,100682.47
2023-05-23T16:32:43.858Z,100675.47
2023-05-23T16:35:46.032Z,100678.03
2023-05-23T16:38:48.086Z,100679.59
2023-05-23T16:41:50.108Z,100679.25
2023-05-23T16:44:53.327Z,100675.31
2023-05-23T16:47:55.493Z,100687.00
2023-05-23T16:50:58.154Z,100681.38
2023-05-23T16:54:00.329Z,100682.94
2023-05-23T16:57:02.607Z,100686.16
2023-05-23T17:00:05.707Z,100690.44
2023-05-23T17:03:07.901Z,100685.91
2023-05-23T17:06:10.107Z,100683.31
2023-05-23T17:09:12.582Z,100685.69
2023-05-23T17:12:14.695Z,100677.13
2023-05-23T17:15:16.988Z,100673.66
2023-05-23T17:18:19.191Z,100674.34
2023-05-23T17:21:21.513Z,100674.22
2023-05-23T17:24:23.546Z,100675.53
2023-05-23T17:27:25.661Z,100679.53
2023-05-23T17:30:28.445Z,100677.25
2023-05-23T17:33:30.556Z,100668.94
2023-05-23T17:36:34.285Z,100678.22
2023-05-23T17:39:36.590Z,100676.41
2023-05-23T17:42:42.578Z,100678.31
2023-05-23T17:45:44.789Z,100677.72
2023-05-23T17:48:47.999Z,100676.16
2023-05-23T17:51:50.707Z,100684.59
2023-05-23T17:54:54.315Z,100684.22
2023-05-23T17:57:56.415Z,100682.31
2023-05-23T18:00:58.499Z,100688.88
2023-05-23T18:04:01.480Z,100691.34
2023-05-23T18:07:03.685Z,100708.00
2023-05-23T18:10:08.845Z,100704.28
2023-05-23T18:13:11.043Z,100711.03
2023-05-23T18:16:13.343Z,100709.00
2023-05-23T18:19:15.529Z,100710.75
2023-05-23T18:22:19.938Z,100717.91
2023-05-23T18:25:27.511Z,100717.31
2023-05-23T18:28:31.899Z,100715.84
2023-05-23T18:31:34.056Z,100716.94
2023-05-23T18:34:36.122Z,100726.19
2023-05-23T18:37:38.777Z,100726.03
2023-05-23T18:40:41.020Z,100730.91
2023-05-23T18:43:43.502Z,100731.50
2023-05-23T18:46:46.096Z,100742.44
2023-05-23T18:49:50.213Z,100743.97
2023-05-23T18:52:52.541Z,100738.75
2023-05-23T18:55:54.605Z,100747.38
2023-05-23T18:58:56.973Z,100746.78
2023-05-23T19:02:00.304Z,100749.06
2023-05-23T19:05:02.712Z,100752.41
2023-05-23T19:08:05.645Z,100756.03
2023-05-23T19:11:07.896Z,100758.78
2023-05-23T19:14:09.991Z,100759.22
2023-05-23T19:17:12.082Z,100767.22
2023-05-23T19:20:18.552Z,100760.06
2023-05-23T19:23:20.959Z,100761.75
2023-05-23T19:26:23.310Z,100753.16
2023-05-23T19:29:26.786Z,100756.69
2023-05-23T19:32:29.352Z,100760.72
2023-05-23T19:35:31.742Z,100765.13
2023-05-23T19:38:34.033Z,100768.31
2023-05-23T19:41:36.163Z,100769.16
2023-05-23T19:44:38.197Z,100762.25
2023-05-23T19:47:40.848Z,100764.59
2023-05-23T19:50:43.711Z,100763.53
2023-05-23T19:53:46.575Z,100761.63
2023-05-23T19:56:48.981Z,100759.38
2023-05-23T19:59:51.185Z,100768.41
2023-05-23T20:02:53.329Z,100762.75
2023-05-23T20:05:55.359Z,100760.84
2023-05-23T20:08:57.406Z,100766.31
2023-05-23T20:12:00.169Z,100769.06
2023-05-23T20:15:03.013Z,100777.50
2023-05-23T20:18:06.010Z,100772.47
2023-05-23T20:21:08.552Z,100772.47
2023-05-23T20:24:12.319Z,100768.28
2023-05-23T20:27:14.456Z,100769.97
2023-05-23T20:30:16.808Z,100771.84
2023-05-23T20:33:19.386Z,100771.84
2023-05-23T20:36:21.970Z,100774.81
2023-05-23T20:39:27.019Z,100770.44
2023-05-23T20:42:31.175Z,100768.75
2023-05-23T20:45:33.754Z,100774.44
2023-05-23T20:48:36.342Z,100779.66
2023-05-23T20:51:38.765Z,100773.59
2023-05-23T20:54:42.739Z,100773.22
2023-05-23T20:57:44.976Z,100778.69
2023-05-23T21:00:47.691Z,100774.50
2023-05-23T21:03:50.277Z,100771.63
2023-05-23T21:06:53.066Z,100777.88
2023-05-23T21:09:55.073Z,100782.13
2023-05-23T21:12:57.418Z,100782.03
2023-05-23T21:15:59.680Z,100784.94
2023-05-23T21:19:01.881Z,100797.09
2023-05-23T21:22:04.225Z,100788.91
2023-05-23T21:25:06.650Z,100804.84
2023-05-23T21:28:08.751Z,100802.69
2023-05-23T21:31:12.878Z,100803.56
2023-05-23T21:34:23.931Z,100804.59
2023-05-23T21:37:26.788Z,100799.38
2023-05-23T21:40:28.889Z,100808.16
2023-05-23T21:43:31.000Z,100807.31
2023-05-23T21:46:33.282Z,100803.16
2023-05-23T21:49:35.631Z,100814.69
2023-05-23T21:52:37.676Z,100814.94
2023-05-23T21:55:39.663Z,100816.81
2023-05-23T21:58:41.821Z,100811.81
2023-05-23T22:01:44.122Z,100822.72
2023-05-23T22:04:46.512Z,100817.91
2023-05-23T22:07:48.585Z,100826.50
2023-05-23T22:10:50.538Z,100828.19
2023-05-23T22:13:52.662Z,100823.56
2023-05-23T22:16:56.255Z,100822.72
2023-05-23T22:19:58.729Z,100824.38
2023-05-23T22:23:02.356Z,100830.09
2023-05-23T22:26:04.765Z,100825.66
2023-05-23T22:29:07.287Z,100826.28
2023-05-23T22:32:09.466Z,100832.81
2023-05-23T22:35:11.683Z,100831.34
2023-05-23T22:38:14.776Z,100826.09
2023-05-23T22:41:17.282Z,100823.63
2023-05-23T22:44:19.319Z,100824.69
2023-05-23T22:47:21.342Z,100826.56
2023-05-23T22:50:23.694Z,100822.16
2023-05-23T22:53:25.744Z,100814.19
2023-05-23T22:56:27.831Z,100822.38
2023-05-23T22:59:31.087Z,100814.19
2023-05-23T23:02:34.646Z,100814.63
2023-05-23T23:05:37.088Z,100807.13
2023-05-23T23:08:39.070Z,100818.44
2023-05-23T23:11:41.216Z,100802.94
2023-05-23T23:14:43.298Z,100813.41
2023-05-23T23:17:45.844Z,100809.03
2023-05-23T23:20:48.549Z,100812.84
2023-05-23T23:23:50.738Z,100812.94
2023-05-23T23:26:52.829Z,100816.38
2023-05-23T23:29:54.845Z,100805.06
2023-05-23T23:32:56.917Z,100809.56
2023-05-23T23:35:59.051Z,100818.38
2023-05-23T23:39:01.177Z,100809.50
2023-05-23T23:42:03.691Z,100814.31
2023-05-23T23:45:06.317Z,100813.22
2023-05-23T23:48:08.516Z,100807.56
2023-05-23T23:51:11.029Z,100810.31
2023-05-23T23:54:13.026Z,100813.41
2023-05-23T23:57:15.107Z,100809.63
